Time;durP1;ratioP1;P1;durP2;ratioP2;P2;SDS_P1;SDS_P2;PMS_P1;PMS_P2;Temp;Humidity;BMP_temperature;BMP_pressure;BME280_temperature;BME280_humidity;BME280_pressure;Samples;Min_cycle;Max_cycle;Signal;HPM_P1;HPM_P2
2024/03/10 00:01:18;;;;;;;2.22;1.70;;;21.90;38.00;;;;;;5091725;28;20648;-63
2024/03/10 00:03:45;;;;;;;2.42;1.77;;;21.90;38.00;;;;;;5092022;28;20637;-63
2024/03/10 00:06:12;;;;;;;2.47;1.60;;;21.90;38.00;;;;;;5091251;28;20224;-64
2024/03/10 00:08:42;;;;;;;2.13;1.55;;;21.90;38.00;;;;;;5091910;28;20308;-63
2024/03/10 00:11:09;;;;;;;3.08;1.83;;;21.90;38.00;;;;;;5092090;28;20273;-63
2024/03/10 00:13:36;;;;;;;2.80;1.48;;;21.90;38.00;;;;;;5091906;28;20730;-63
2024/03/10 00:16:04;;;;;;;1.90;1.60;;;21.90;38.00;;;;;;5091827;28;20285;-63
2024/03/10 00:18:32;;;;;;;1.80;1.60;;;21.90;38.00;;;;;;5091800;28;20214;-63
2024/03/10 00:21:00;;;;;;;2.72;1.80;;;21.90;38.00;;;;;;5091258;28;20186;-63
2024/03/10 00:23:27;;;;;;;2.00;1.70;;;22.00;38.10;;;;;;5091857;28;20224;-63
2024/03/10 00:25:55;;;;;;;2.42;1.90;;;21.90;38.00;;;;;;5091872;28;20270;-63
2024/03/10 00:28:22;;;;;;;2.40;1.60;;;21.90;38.00;;;;;;5092366;28;20626;-63
2024/03/10 00:30:49;;;;;;;2.15;1.90;;;21.90;38.00;;;;;;5091399;28;20190;-63
2024/03/10 00:33:16;;;;;;;2.40;1.88;;;21.90;38.00;;;;;;5091570;28;20226;-63
2024/03/10 00:35:43;;;;;;;2.33;1.60;;;21.90;38.00;;;;;;5090781;28;20202;-63
2024/03/10 00:38:10;;;;;;;2.40;1.80;;;21.90;38.00;;;;;;5091668;28;20218;-63
2024/03/10 00:40:37;;;;;;;2.78;1.75;;;21.90;38.00;;;;;;5091628;28;20721;-64
2024/03/10 00:43:06;;;;;;;2.53;1.73;;;21.90;38.00;;;;;;5091861;28;20296;-63
2024/03/10 00:45:33;;;;;;;2.58;1.80;;;21.90;38.70;;;;;;5091429;28;20218;-63
2024/03/10 00:48:00;;;;;;;3.17;1.88;;;21.90;38.00;;;;;;5091808;28;20276;-63
2024/03/10 00:50:27;;;;;;;2.10;1.65;;;21.90;38.00;;;;;;5090734;28;20183;-63
2024/03/10 00:52:55;;;;;;;2.90;1.83;;;21.90;38.00;;;;;;5093738;28;20214;-63
2024/03/10 00:55:22;;;;;;;1.88;1.50;;;21.90;38.70;;;;;;5095329;28;20200;-63
2024/03/10 00:57:50;;;;;;;1.95;1.42;;;21.90;38.00;;;;;;5095393;28;20409;-64
2024/03/10 01:00:18;;;;;;;3.20;1.80;;;21.90;38.00;;;;;;5095096;28;20198;-63
2024/03/10 01:02:48;;;;;;;3.05;1.50;;;21.90;38.00;;;;;;5095255;28;20218;-63
2024/03/10 01:05:14;;;;;;;2.50;2.00;;;21.90;38.00;;;;;;5094419;28;20734;-63
2024/03/10 01:07:41;;;;;;;2.63;1.60;;;21.90;38.00;;;;;;5094845;28;20218;-63
2024/03/10 01:10:11;;;;;;;2.20;1.95;;;21.90;38.00;;;;;;5094809;28;20240;-63
2024/03/10 01:12:38;;;;;;;2.17;1.70;;;21.90;38.00;;;;;;5095044;28;20221;-63
2024/03/10 01:15:07;;;;;;;2.85;1.52;;;21.90;38.00;;;;;;5094780;28;20241;-63
2024/03/10 01:17:35;;;;;;;2.58;1.90;;;21.90;38.00;;;;;;5094947;28;20214;-63
2024/03/10 01:20:03;;;;;;;2.22;1.50;;;21.90;38.00;;;;;;5093982;28;20197;-63
2024/03/10 01:22:31;;;;;;;2.42;1.98;;;21.90;38.00;;;;;;5094651;28;20218;-64
2024/03/10 01:24:58;;;;;;;2.58;1.58;;;21.90;38.00;;;;;;5095010;28;20198;-63
2024/03/10 01:27:25;;;;;;;2.83;2.13;;;21.90;38.00;;;;;;5094703;28;20220;-64
2024/03/10 01:29:52;;;;;;;2.10;1.70;;;21.90;38.00;;;;;;5094545;28;20239;-63
2024/03/10 01:32:19;;;;;;;2.00;1.58;;;21.90;38.00;;;;;;5094363;28;20229;-63
2024/03/10 01:34:48;;;;;;;1.90;1.50;;;21.90;38.00;;;;;;5093970;28;20247;-63
2024/03/10 01:37:15;;;;;;;2.33;1.73;;;21.80;37.90;;;;;;5094087;28;20255;-63
2024/03/10 01:39:42;;;;;;;2.45;1.60;;;21.90;38.00;;;;;;5094196;28;20194;-63
2024/03/10 01:42:09;;;;;;;2.28;1.60;;;21.90;38.60;;;;;;5094497;28;20198;-63
2024/03/10 01:44:36;;;;;;;2.05;1.63;;;21.90;37.90;;;;;;5094180;28;20186;-63
2024/03/10 01:47:03;;;;;;;2.05;1.50;;;21.90;38.70;;;;;;5094374;28;20524;-63
2024/03/10 01:49:30;;;;;;;3.85;1.95;;;21.90;37.90;;;;;;5093784;28;20218;-63
2024/03/10 01:51:59;;;;;;;2.97;1.60;;;21.90;37.90;;;;;;5094147;28;20240;-63
2024/03/10 01:54:28;;;;;;;2.50;1.60;;;21.90;37.90;;;;;;5094154;28;20214;-63
2024/03/10 01:56:56;;;;;;;2.00;1.42;;;21.90;38.50;;;;;;5094242;28;20277;-63
2024/03/10 01:59:23;;;;;;;3.13;1.70;;;21.90;37.90;;;;;;5094054;28;20764;-63
2024/03/10 02:01:50;;;;;;;1.77;1.58;;;21.90;38.60;;;;;;5093904;28;20186;-63
2024/03/10 02:04:19;;;;;;;1.98;1.50;;;21.90;37.90;;;;;;5093348;28;20253;-63
2024/03/10 02:06:46;;;;;;;2.20;1.35;;;21.90;37.90;;;;;;5093671;28;20214;-63
2024/03/10 02:09:14;;;;;;;2.42;1.55;;;21.90;38.50;;;;;;5093743;28;20214;-63
2024/03/10 02:11:41;;;;;;;1.75;1.42;;;21.90;37.80;;;;;;5093620;28;20190;-63
2024/03/10 02:14:08;;;;;;;2.58;1.50;;;21.90;38.50;;;;;;5093818;28;20226;-63
2024/03/10 02:16:35;;;;;;;2.75;1.40;;;21.90;37.80;;;;;;5093362;28;20719;-63
2024/03/10 02:19:02;;;;;;;2.35;1.60;;;21.90;37.90;;;;;;5093811;28;20267;-63
2024/03/10 02:21:29;;;;;;;2.47;1.55;;;21.90;37.90;;;;;;5092818;28;20680;-63
2024/03/10 02:24:06;;;;;;;2.20;1.40;;;21.90;37.90;;;;;;5093814;28;20625;-63
2024/03/10 02:26:37;;;;;;;1.52;1.35;;;21.90;37.90;;;;;;5093791;28;20225;-63
2024/03/10 02:29:15;;;;;;;1.95;1.45;;;21.90;37.90;;;;;;5093258;28;20579;-63
2024/03/10 02:48:10;;;;;;;2.05;1.58;;;21.90;37.90;;;;;;5093145;28;20212;-63
2024/03/10 02:50:37;;;;;;;1.98;1.60;;;21.90;37.90;;;;;;5091995;28;20282;-63
2024/03/10 02:53:04;;;;;;;4.63;1.80;;;21.80;37.70;;;;;;5093133;28;20275;-63
2024/03/10 02:55:33;;;;;;;1.75;1.50;;;21.90;37.80;;;;;;5093037;28;20554;-63
2024/03/10 02:58:03;;;;;;;1.75;1.60;;;21.90;37.80;;;;;;5092883;28;20309;-63
2024/03/10 03:00:31;;;;;;;2.67;1.48;;;21.80;37.80;;;;;;5093030;28;20182;-63
2024/03/10 03:02:58;;;;;;;1.40;1.20;;;21.80;37.70;;;;;;5093034;28;20220;-63
2024/03/10 03:05:26;;;;;;;1.85;1.35;;;21.90;37.80;;;;;;5091807;28;20208;-63
2024/03/10 03:07:53;;;;;;;2.10;1.40;;;21.90;37.80;;;;;;5092824;28;20233;-63
2024/03/10 03:10:20;;;;;;;3.80;1.50;;;21.90;37.80;;;;;;5092485;28;20711;-63
2024/03/10 03:12:47;;;;;;;1.58;1.40;;;21.90;37.70;;;;;;5092521;28;20214;-63
2024/03/10 03:15:16;;;;;;;2.15;1.50;;;21.90;37.70;;;;;;5091736;28;20558;-63
2024/03/10 03:17:43;;;;;;;2.00;1.50;;;21.80;37.70;;;;;;5092785;28;20305;-63
2024/03/10 03:20:15;;;;;;;2.53;1.45;;;21.90;37.70;;;;;;5091588;28;20186;-63
2024/03/10 03:22:43;;;;;;;1.52;1.40;;;21.90;37.70;;;;;;5092235;28;20214;-63
2024/03/10 03:25:14;;;;;;;1.65;1.35;;;21.90;37.70;;;;;;5092326;28;20239;-63
2024/03/10 03:27:42;;;;;;;2.47;1.58;;;21.90;37.70;;;;;;5092257;28;20247;-63
2024/03/10 03:30:09;;;;;;;2.20;1.60;;;21.90;37.60;;;;;;5092544;28;20609;-63
2024/03/10 03:32:38;;;;;;;1.70;1.30;;;21.90;37.70;;;;;;5092061;28;20322;-63
2024/03/10 03:35:06;;;;;;;2.65;1.50;;;21.80;37.50;;;;;;5091639;28;20190;-63
2024/03/10 03:37:33;;;;;;;1.35;1.25;;;21.90;37.60;;;;;;5092284;28;20679;-63
2024/03/10 03:40:00;;;;;;;1.83;1.50;;;21.80;37.50;;;;;;5092458;28;20194;-63
2024/03/10 03:42:28;;;;;;;2.13;1.50;;;21.80;37.50;;;;;;5092193;28;20247;-63
2024/03/10 03:44:55;;;;;;;1.80;1.48;;;21.80;37.50;;;;;;5092046;28;20278;-63
2024/03/10 03:47:22;;;;;;;1.98;1.27;;;21.90;37.60;;;;;;5092191;28;20224;-63
2024/03/10 03:49:50;;;;;;;2.20;1.58;;;21.80;37.50;;;;;;5091448;28;20189;-63
2024/03/10 03:52:18;;;;;;;2.03;1.23;;;21.80;37.40;;;;;;5091234;28;20193;-63
2024/03/10 03:54:45;;;;;;;2.28;1.30;;;21.80;37.40;;;;;;5092042;28;20268;-63
2024/03/10 03:57:12;;;;;;;2.38;1.40;;;21.90;37.60;;;;;;5091605;28;20235;-63
2024/03/10 03:59:39;;;;;;;2.75;1.52;;;21.90;37.50;;;;;;5092171;28;20632;-63
2024/03/10 04:02:07;;;;;;;1.90;1.20;;;21.90;37.50;;;;;;5092462;28;20723;-63
2024/03/10 04:04:34;;;;;;;3.63;1.50;;;21.90;37.50;;;;;;5091342;28;20310;-63
2024/03/10 04:07:02;;;;;;;1.92;1.42;;;21.80;37.40;;;;;;5091821;28;20230;-63
2024/03/10 04:09:29;;;;;;;1.40;1.20;;;21.90;37.40;;;;;;5092196;28;20256;-63
2024/03/10 04:11:56;;;;;;;2.17;1.30;;;21.80;37.40;;;;;;5091738;28;20215;-62
2024/03/10 04:14:26;;;;;;;2.30;1.30;;;21.90;37.40;;;;;;5092120;28;20236;-63
2024/03/10 04:16:53;;;;;;;1.85;1.30;;;21.90;37.40;;;;;;5092028;28;20190;-63
2024/03/10 04:19:20;;;;;;;2.35;1.25;;;21.90;37.40;;;;;;5091214;28;20222;-63
2024/03/10 04:21:48;;;;;;;1.80;1.38;;;21.90;37.40;;;;;;5091932;28;20193;-63
2024/03/10 04:24:16;;;;;;;2.22;1.40;;;21.90;37.40;;;;;;5091891;28;20318;-63
2024/03/10 04:26:43;;;;;;;2.03;1.20;;;21.90;37.40;;;;;;5093824;28;20210;-63
2024/03/10 04:29:11;;;;;;;1.25;1.13;;;21.80;37.30;;;;;;5096044;28;20275;-63
2024/03/10 04:31:38;;;;;;;2.45;1.10;;;21.90;37.40;;;;;;5095374;28;20243;-63
2024/03/10 04:34:05;;;;;;;1.40;1.20;;;21.90;37.40;;;;;;5094825;28;20210;-63
2024/03/10 04:36:32;;;;;;;2.50;1.30;;;21.90;37.40;;;;;;5095897;28;20263;-63
2024/03/10 04:38:59;;;;;;;2.45;1.23;;;21.80;37.30;;;;;;5095772;28;20241;-63
2024/03/10 04:41:29;;;;;;;2.38;1.20;;;21.80;37.30;;;;;;5095456;28;20553;-64
2024/03/10 04:43:56;;;;;;;2.55;1.20;;;21.90;37.40;;;;;;5095129;28;20266;-63
2024/03/10 04:46:23;;;;;;;1.45;1.17;;;21.90;37.40;;;;;;5095188;28;20296;-63
2024/03/10 04:48:50;;;;;;;1.75;1.20;;;21.80;37.20;;;;;;5094903;28;20263;-63
2024/03/10 04:51:17;;;;;;;1.40;1.20;;;21.80;37.30;;;;;;5095375;28;20281;-63
2024/03/10 04:53:44;;;;;;;1.50;1.30;;;21.90;37.40;;;;;;5095562;28;20214;-63
2024/03/10 04:56:12;;;;;;;2.33;1.25;;;21.90;37.30;;;;;;5095425;28;20182;-63
2024/03/10 04:58:42;;;;;;;1.60;1.15;;;21.90;37.30;;;;;;5095140;28;20296;-63
2024/03/10 05:01:09;;;;;;;2.17;1.25;;;21.80;37.20;;;;;;5095287;28;20186;-63
2024/03/10 05:03:38;;;;;;;1.63;1.17;;;21.80;37.30;;;;;;5094600;28;20268;-63
2024/03/10 05:06:06;;;;;;;1.50;1.10;;;21.90;37.30;;;;;;5094669;28;20273;-63
2024/03/10 05:08:34;;;;;;;1.33;1.08;;;21.90;37.30;;;;;;5095225;28;20260;-63
2024/03/10 05:11:03;;;;;;;1.40;1.10;;;21.90;37.30;;;;;;5094780;28;20656;-63
2024/03/10 05:13:30;;;;;;;1.73;1.15;;;21.90;37.20;;;;;;5095032;28;20214;-63
2024/03/10 05:15:58;;;;;;;1.52;1.42;;;21.90;37.30;;;;;;5094953;28;20243;-63
2024/03/10 05:18:26;;;;;;;2.05;1.17;;;21.80;37.10;;;;;;5094105;28;20275;-63
2024/03/10 05:20:53;;;;;;;1.88;1.30;;;21.80;37.10;;;;;;5094679;28;20619;-63
2024/03/10 05:23:19;;;;;;;1.85;1.10;;;21.80;37.20;;;;;;5094660;28;20309;-63
2024/03/10 05:25:46;;;;;;;2.33;1.40;;;21.80;37.10;;;;;;5094848;28;20182;-63
2024/03/10 05:28:13;;;;;;;1.40;1.30;;;21.80;37.10;;;;;;5094293;28;20695;-63
2024/03/10 05:30:42;;;;;;;2.15;1.30;;;21.80;37.10;;;;;;5094532;28;20182;-63
2024/03/10 05:33:10;;;;;;;1.50;1.40;;;21.80;37.10;;;;;;5093536;28;20230;-63
2024/03/10 05:35:37;;;;;;;2.53;1.40;;;21.80;37.10;;;;;;5094065;28;20694;-63
2024/03/10 05:38:05;;;;;;;1.52;1.40;;;21.80;37.10;;;;;;5093620;28;20218;-63
2024/03/10 05:40:32;;;;;;;1.73;1.40;;;21.80;37.10;;;;;;5094576;28;20276;-63
2024/03/10 05:42:59;;;;;;;1.35;1.20;;;21.80;37.10;;;;;;5094330;28;20263;-63
2024/03/10 05:45:26;;;;;;;2.75;1.27;;;21.80;37.20;;;;;;5094332;28;20182;-63
2024/03/10 05:47:53;;;;;;;2.35;1.38;;;21.80;37.10;;;;;;5093579;28;20229;-63
2024/03/10 05:50:22;;;;;;;1.58;1.30;;;21.80;37.20;;;;;;5093898;28;20211;-63
2024/03/10 05:52:49;;;;;;;2.03;1.25;;;21.80;37.20;;;;;;5094381;28;20214;-63
2024/03/10 05:55:16;;;;;;;2.03;1.50;;;21.80;37.10;;;;;;5093945;28;20183;-63
2024/03/10 05:57:43;;;;;;;1.25;1.15;;;21.80;37.10;;;;;;5093681;28;20188;-63
2024/03/10 06:00:15;;;;;;;1.80;1.45;;;21.80;37.10;;;;;;5094137;28;20190;-63
2024/03/10 06:02:44;;;;;;;1.58;1.20;;;21.80;37.10;;;;;;5093673;28;20320;-63
2024/03/10 06:05:13;;;;;;;1.33;1.17;;;21.80;37.10;;;;;;5093866;28;20200;-63
2024/03/10 06:07:42;;;;;;;2.28;1.40;;;21.80;37.10;;;;;;5093885;28;20610;-63
2024/03/10 06:10:10;;;;;;;1.40;1.30;;;21.80;37.10;;;;;;5093650;28;20183;-63
2024/03/10 06:12:39;;;;;;;1.40;1.10;;;21.80;37.10;;;;;;5093351;28;20561;-63
2024/03/10 06:15:10;;;;;;;1.08;0.93;;;21.80;37.10;;;;;;5093864;28;20277;-66
2024/03/10 06:17:37;;;;;;;1.50;1.40;;;21.80;37.10;;;;;;5093345;28;20224;-66
2024/03/10 06:25:36;;;;;;;2.13;1.42;;;21.80;37.00;;;;;;5093482;28;20181;-66
2024/03/10 06:28:03;;;;;;;2.95;1.23;;;21.80;37.00;;;;;;5093193;28;20225;-66
2024/03/10 06:30:30;;;;;;;1.52;1.30;;;21.80;37.00;;;;;;5093642;28;20190;-65
2024/03/10 06:32:57;;;;;;;2.50;1.35;;;21.90;37.10;;;;;;5092178;28;20233;-66
2024/03/10 06:35:25;;;;;;;1.48;1.20;;;21.90;37.10;;;;;;5093486;28;20201;-66
2024/03/10 06:37:53;;;;;;;2.08;1.40;;;21.90;37.10;;;;;;5093129;28;20213;-63
2024/03/10 06:40:21;;;;;;;5.35;1.45;;;21.90;37.10;;;;;;5093177;28;20231;-63
2024/03/10 06:42:48;;;;;;;1.92;1.33;;;21.80;37.00;;;;;;5093080;28;20574;-64
2024/03/10 06:45:15;;;;;;;1.70;1.15;;;21.80;37.00;;;;;;5092953;28;20208;-63
2024/03/10 06:47:42;;;;;;;2.10;1.10;;;21.80;37.00;;;;;;5092252;28;20218;-63
2024/03/10 06:50:09;;;;;;;2.00;1.30;;;21.90;37.10;;;;;;5091956;28;20632;-63
2024/03/10 06:52:37;;;;;;;1.45;1.15;;;21.80;37.00;;;;;;5093088;28;20239;-63
2024/03/10 06:55:07;;;;;;;2.25;1.25;;;21.80;37.00;;;;;;5092606;28;20235;-63
2024/03/10 06:57:33;;;;;;;3.80;1.48;;;21.80;37.00;;;;;;5092966;28;20196;-65
2024/03/10 07:00:00;;;;;;;1.40;1.13;;;21.80;37.00;;;;;;5092809;28;20182;-65
2024/03/10 07:02:28;;;;;;;1.30;1.20;;;21.80;37.00;;;;;;5091924;28;20185;-63
2024/03/10 07:05:00;;;;;;;1.85;1.27;;;21.80;37.00;;;;;;5093356;28;20590;-63
2024/03/10 07:07:27;;;;;;;1.80;1.50;;;21.80;37.10;;;;;;5092901;28;20214;-63
2024/03/10 07:09:55;;;;;;;1.65;1.40;;;21.80;37.00;;;;;;5092334;28;20236;-63
2024/03/10 07:12:24;;;;;;;1.42;1.13;;;21.80;37.00;;;;;;5092558;28;20754;-63
2024/03/10 07:14:51;;;;;;;2.95;1.42;;;21.80;37.00;;;;;;5093255;28;20306;-63
2024/03/10 07:17:18;;;;;;;2.00;1.45;;;21.80;37.60;;;;;;5091574;28;20385;-63
2024/03/10 07:19:45;;;;;;;1.80;1.40;;;21.80;37.00;;;;;;5092734;28;20218;-63
2024/03/10 07:22:12;;;;;;;2.60;1.45;;;21.80;37.00;;;;;;5092466;28;20186;-63
2024/03/10 07:24:39;;;;;;;1.67;1.50;;;21.80;37.00;;;;;;5092604;28;20214;-63
2024/03/10 07:27:06;;;;;;;2.20;1.35;;;21.80;37.70;;;;;;5092705;28;20202;-63
2024/03/10 07:29:34;;;;;;;1.83;1.35;;;21.80;37.00;;;;;;5092760;28;20236;-63
2024/03/10 07:32:01;;;;;;;1.85;1.40;;;21.80;37.00;;;;;;5092064;28;20294;-63
2024/03/10 07:34:29;;;;;;;2.08;1.40;;;21.80;37.00;;;;;;5092016;28;20218;-66
2024/03/10 07:36:56;;;;;;;2.92;1.65;;;21.80;36.90;;;;;;5092521;28;20210;-63
2024/03/10 07:39:23;;;;;;;2.60;1.50;;;21.80;37.00;;;;;;5092260;28;20227;-63
2024/03/10 07:41:50;;;;;;;1.95;1.30;;;21.80;36.90;;;;;;5092381;28;20276;-63
2024/03/10 07:44:17;;;;;;;2.03;1.52;;;21.80;36.90;;;;;;5092283;28;20218;-63
2024/03/10 07:46:46;;;;;;;2.08;1.30;;;21.80;36.90;;;;;;5092154;28;20281;-63
2024/03/10 07:49:12;;;;;;;1.50;1.30;;;21.80;37.00;;;;;;5091573;28;20286;-63
2024/03/10 07:51:39;;;;;;;1.63;1.50;;;21.80;36.90;;;;;;5092285;28;20186;-63
2024/03/10 07:54:06;;;;;;;1.65;1.55;;;21.80;36.90;;;;;;5092111;28;20214;-63
2024/03/10 07:56:33;;;;;;;1.70;1.50;;;21.80;37.00;;;;;;5091893;28;20248;-63
2024/03/10 07:59:00;;;;;;;1.40;1.30;;;21.80;36.90;;;;;;5092303;28;20218;-66
2024/03/10 08:01:27;;;;;;;2.80;1.60;;;21.80;36.90;;;;;;5093696;28;20186;-63
2024/03/10 08:03:55;;;;;;;1.80;1.38;;;21.80;36.90;;;;;;5095637;28;20302;-63
2024/03/10 08:06:22;;;;;;;2.20;1.58;;;21.80;36.90;;;;;;5096366;28;20190;-65
2024/03/10 08:08:52;;;;;;;2.55;1.30;;;21.80;36.90;;;;;;5095698;28;20795;-64
2024/03/10 08:11:21;;;;;;;1.90;1.52;;;21.80;36.90;;;;;;5095930;28;20277;-64
2024/03/10 08:13:48;;;;;;;4.45;1.70;;;21.80;37.00;;;;;;5095913;28;20592;-64
2024/03/10 08:16:16;;;;;;;2.38;1.90;;;21.80;36.90;;;;;;5095916;28;20182;-64
2024/03/10 08:18:43;;;;;;;2.65;1.75;;;21.80;36.90;;;;;;5095457;28;20271;-64
2024/03/10 08:21:11;;;;;;;1.92;1.35;;;21.80;36.90;;;;;;5096048;28;20187;-64
2024/03/10 08:23:38;;;;;;;2.00;1.70;;;21.80;36.90;;;;;;5095813;28;20214;-64
2024/03/10 08:26:09;;;;;;;1.45;1.30;;;21.80;36.90;;;;;;5095992;28;20186;-64
2024/03/10 08:28:36;;;;;;;2.35;1.60;;;21.80;36.90;;;;;;5095841;28;20287;-64
2024/03/10 08:31:05;;;;;;;3.15;1.50;;;21.80;36.90;;;;;;5095196;28;20193;-63
2024/03/10 08:33:32;;;;;;;1.95;1.58;;;21.80;36.90;;;;;;5094995;28;20641;-64
2024/03/10 08:36:00;;;;;;;1.95;1.52;;;21.90;36.90;;;;;;5095478;28;20660;-64
2024/03/10 08:38:29;;;;;;;2.42;1.60;;;21.80;36.90;;;;;;5095210;28;20305;-64
2024/03/10 08:40:57;;;;;;;2.70;1.70;;;21.80;36.90;;;;;;5095665;28;20196;-64
2024/03/10 08:43:24;;;;;;;1.98;1.63;;;21.80;36.90;;;;;;5095299;28;20757;-64
2024/03/10 08:45:51;;;;;;;2.20;1.55;;;21.90;37.00;;;;;;5095155;28;20194;-64
2024/03/10 08:48:19;;;;;;;1.83;1.50;;;21.80;36.90;;;;;;5094517;28;20321;-64
2024/03/10 08:50:46;;;;;;;2.70;1.67;;;21.80;36.90;;;;;;5095592;28;20223;-64
2024/03/10 08:53:13;;;;;;;2.75;1.65;;;21.80;36.90;;;;;;5095316;28;20271;-64
2024/03/10 08:55:43;;;;;;;1.98;1.60;;;21.80;36.90;;;;;;5095105;28;20727;-64
2024/03/10 08:58:12;;;;;;;1.70;1.50;;;21.80;36.90;;;;;;5095443;28;20214;-63
2024/03/10 09:00:39;;;;;;;1.67;1.58;;;21.80;37.00;;;;;;5094853;28;20651;-64
2024/03/10 09:03:06;;;;;;;2.35;1.55;;;21.80;36.90;;;;;;5094342;28;20214;-64
2024/03/10 09:05:33;;;;;;;1.58;1.48;;;21.80;36.90;;;;;;5095181;28;20231;-64
2024/03/10 09:08:00;;;;;;;1.70;1.60;;;21.80;36.90;;;;;;5094932;28;20241;-63
2024/03/10 09:10:27;;;;;;;2.15;1.70;;;21.80;37.00;;;;;;5095162;28;20186;-63
2024/03/10 09:12:55;;;;;;;1.98;1.40;;;21.80;37.00;;;;;;5093694;28;20194;-64
2024/03/10 09:15:22;;;;;;;2.50;1.50;;;21.80;37.00;;;;;;5094500;28;20612;-63
2024/03/10 09:17:52;;;;;;;1.58;1.42;;;21.80;37.00;;;;;;5093957;28;20198;-63
2024/03/10 09:20:20;;;;;;;2.03;1.48;;;21.80;37.00;;;;;;5094968;28;20671;-64
2024/03/10 09:22:48;;;;;;;1.67;1.40;;;21.80;37.00;;;;;;5094418;28;20221;-64
2024/03/10 09:25:21;;;;;;;2.35;1.30;;;21.80;37.00;;;;;;5095065;28;20194;-64
2024/03/10 09:27:48;;;;;;;1.90;1.40;;;21.80;37.00;;;;;;5094747;28;20588;-64
2024/03/10 09:30:18;;;;;;;4.28;1.60;;;21.80;37.00;;;;;;5094624;28;20197;-64
2024/03/10 09:32:49;;;;;;;2.08;1.35;;;21.80;37.00;;;;;;5093593;28;20598;-64
2024/03/10 09:35:20;;;;;;;1.50;1.40;;;21.80;37.00;;;;;;5094611;28;20190;-64
2024/03/10 09:37:48;;;;;;;1.58;1.42;;;21.80;37.00;;;;;;5094425;28;20190;-64
2024/03/10 09:40:16;;;;;;;2.42;1.90;;;21.80;37.10;;;;;;5094150;28;20561;-63
2024/03/10 09:42:43;;;;;;;2.20;1.60;;;21.80;37.00;;;;;;5094617;28;20190;-64
2024/03/10 09:45:16;;;;;;;2.67;1.90;;;21.90;37.80;;;;;;5094195;28;20210;-63
2024/03/10 09:47:48;;;;;;;2.97;1.25;;;21.80;37.70;;;;;;5093414;28;20182;-64
2024/03/10 09:50:22;;;;;;;1.45;1.20;;;21.80;37.10;;;;;;5094426;28;20186;-63
2024/03/10 09:52:52;;;;;;;1.85;1.50;;;21.80;37.70;;;;;;5093968;28;20190;-63
2024/03/10 09:55:20;;;;;;;2.03;1.30;;;21.80;37.10;;;;;;5094272;28;20182;-63
2024/03/10 09:57:50;;;;;;;2.53;1.40;;;21.80;37.10;;;;;;5093885;28;20652;-63
2024/03/10 10:00:19;;;;;;;1.67;1.30;;;21.80;37.10;;;;;;5094001;28;20190;-64
2024/03/10 10:02:49;;;;;;;2.10;1.52;;;21.80;37.10;;;;;;5093479;28;20197;-64
2024/03/10 10:05:24;;;;;;;1.70;1.27;;;21.80;37.10;;;;;;5093746;28;20186;-64
2024/03/10 10:07:52;;;;;;;3.45;1.70;;;21.80;37.20;;;;;;5093375;28;20681;-63
2024/03/10 10:10:20;;;;;;;1.77;1.35;;;21.80;37.20;;;;;;5093725;28;20599;-63
2024/03/10 10:12:49;;;;;;;2.60;1.70;;;21.80;37.20;;;;;;5094021;28;20187;-64
2024/03/10 10:15:17;;;;;;;2.17;1.48;;;21.80;37.20;;;;;;5093670;28;20198;-64
2024/03/10 10:17:55;;;;;;;1.73;1.45;;;21.80;37.20;;;;;;5093129;28;20190;-64
2024/03/10 10:20:25;;;;;;;2.33;1.60;;;21.80;37.20;;;;;;5093518;28;20204;-63
2024/03/10 10:22:53;;;;;;;2.17;1.60;;;21.80;37.20;;;;;;5093494;28;20243;-64
2024/03/10 10:25:22;;;;;;;1.80;1.15;;;21.80;37.30;;;;;;5093371;28;20190;-64
2024/03/10 10:27:50;;;;;;;3.38;1.35;;;21.80;37.20;;;;;;5093246;28;20717;-64
2024/03/10 10:30:22;;;;;;;3.13;1.83;;;21.80;37.20;;;;;;5093424;28;20193;-64
2024/03/10 10:32:50;;;;;;;3.13;1.75;;;21.80;37.30;;;;;;5093040;28;20236;-63
2024/03/10 10:35:18;;;;;;;2.58;1.80;;;21.80;37.30;;;;;;5093537;28;20659;-64
2024/03/10 10:37:46;;;;;;;3.30;1.58;;;21.90;37.40;;;;;;5093591;28;20570;-64
2024/03/10 10:40:14;;;;;;;3.00;1.58;;;21.80;37.30;;;;;;5093522;28;20218;-64
2024/03/10 10:42:41;;;;;;;1.65;1.48;;;21.90;37.40;;;;;;5093084;28;20636;-63
2024/03/10 10:45:10;;;;;;;2.10;1.50;;;21.90;37.40;;;;;;5093118;28;20218;-63
2024/03/10 10:47:37;;;;;;;2.35;1.50;;;21.90;37.40;;;;;;5092617;28;20186;-63
2024/03/10 10:50:14;;;;;;;2.10;1.52;;;21.90;37.40;;;;;;5093213;28;20323;-64
2024/03/10 10:52:43;;;;;;;2.55;1.60;;;21.80;37.40;;;;;;5092995;28;20243;-63
2024/03/10 10:55:11;;;;;;;2.58;1.70;;;21.90;37.40;;;;;;5093411;28;20221;-64
2024/03/10 10:57:44;;;;;;;2.85;1.65;;;21.90;38.10;;;;;;5093052;28;20190;-64
2024/03/10 11:00:26;;;;;;;3.42;1.88;;;21.90;37.40;;;;;;5093137;28;20291;-64
2024/03/10 11:03:06;;;;;;;2.03;1.67;;;21.90;37.40;;;;;;5092425;28;20190;-64
2024/03/10 11:05:33;;;;;;;1.92;1.40;;;21.90;37.40;;;;;;5093084;28;20273;-64
2024/03/10 11:08:04;;;;;;;2.38;1.60;;;21.90;37.40;;;;;;5092600;28;20186;-64
2024/03/10 11:10:48;;;;;;;1.50;1.40;;;21.90;37.50;;;;;;5092894;28;20193;-64
2024/03/10 11:13:17;;;;;;;2.08;1.40;;;21.90;37.40;;;;;;5092415;28;20756;-63
2024/03/10 11:15:45;;;;;;;2.85;1.65;;;21.90;37.40;;;;;;5091611;28;20700;-64
2024/03/10 11:18:25;;;;;;;1.67;1.33;;;21.90;37.40;;;;;;5092739;28;20187;-64
2024/03/10 11:20:53;;;;;;;2.83;1.50;;;21.90;37.50;;;;;;5092782;28;20660;-63
2024/03/10 11:23:26;;;;;;;1.92;1.45;;;21.90;37.50;;;;;;5092038;28;20209;-63
2024/03/10 11:25:53;;;;;;;4.45;1.85;;;21.90;37.50;;;;;;5092616;28;20197;-64
2024/03/10 11:28:25;;;;;;;2.03;1.42;;;21.90;37.50;;;;;;5092414;28;20578;-63
2024/03/10 11:30:56;;;;;;;2.17;1.50;;;21.90;37.50;;;;;;5091379;28;20219;-64
2024/03/10 11:33:24;;;;;;;1.48;1.20;;;21.90;37.50;;;;;;5092494;28;20220;-64
2024/03/10 11:35:54;;;;;;;2.63;1.70;;;21.90;37.40;;;;;;5091897;28;20198;-64
2024/03/10 11:38:21;;;;;;;1.65;1.40;;;22.00;37.50;;;;;;5092412;28;20217;-64
2024/03/10 11:40:59;;;;;;;2.05;1.38;;;21.90;37.50;;;;;;5092384;28;20209;-64
2024/03/10 11:43:27;;;;;;;2.25;1.40;;;21.90;37.50;;;;;;5092074;28;20217;-63
2024/03/10 11:45:54;;;;;;;2.22;1.60;;;21.90;37.40;;;;;;5091639;28;20194;-63
2024/03/10 11:48:23;;;;;;;1.80;1.30;;;21.90;37.40;;;;;;5092242;28;20210;-64
2024/03/10 11:50:50;;;;;;;1.50;1.40;;;21.90;37.40;;;;;;5090795;28;20699;-64
2024/03/10 11:53:16;;;;;;;2.53;1.45;;;22.00;37.60;;;;;;5092169;28;20322;-64
2024/03/10 11:55:44;;;;;;;2.88;1.52;;;21.90;37.50;;;;;;5091905;28;20288;-64
2024/03/10 11:58:13;;;;;;;2.92;1.42;;;22.00;37.50;;;;;;5092029;28;20186;-64
2024/03/10 12:00:41;;;;;;;2.58;1.50;;;22.00;37.60;;;;;;5091496;28;20280;-64
2024/03/10 12:03:08;;;;;;;3.45;1.70;;;22.00;37.60;;;;;;5091687;28;20186;-64
2024/03/10 12:05:35;;;;;;;2.88;1.45;;;21.90;37.50;;;;;;5091621;28;20701;-63
2024/03/10 12:08:04;;;;;;;2.40;1.50;;;22.00;37.90;;;;;;5092065;28;20276;-64
2024/03/10 12:10:33;;;;;;;2.22;1.30;;;22.00;37.50;;;;;;5092366;28;20251;-64
2024/03/10 12:13:00;;;;;;;1.83;1.60;;;22.00;37.60;;;;;;5091443;28;20571;-63
2024/03/10 12:15:29;;;;;;;2.25;1.27;;;21.90;37.50;;;;;;5091496;28;20218;-64
2024/03/10 12:18:00;;;;;;;2.13;1.55;;;21.90;37.50;;;;;;5091737;28;20190;-64
2024/03/10 12:20:27;;;;;;;2.30;1.60;;;22.00;37.60;;;;;;5091448;28;20186;-64
2024/03/10 12:22:58;;;;;;;2.00;1.52;;;22.00;37.60;;;;;;5092013;28;20293;-63
2024/03/10 12:25:25;;;;;;;2.97;1.70;;;21.90;37.50;;;;;;5091982;28;20186;-64
2024/03/10 12:27:52;;;;;;;1.80;1.15;;;22.00;38.20;;;;;;5091804;28;20193;-64
2024/03/10 12:30:20;;;;;;;3.53;1.80;;;22.00;37.60;;;;;;5091326;28;20234;-64
2024/03/10 12:32:50;;;;;;;2.63;1.50;;;22.00;37.60;;;;;;5091479;28;20234;-64
2024/03/10 12:35:19;;;;;;;1.75;1.27;;;21.90;37.50;;;;;;5091543;28;20432;-64
2024/03/10 12:37:46;;;;;;;1.60;1.23;;;21.90;37.50;;;;;;5091702;28;20187;-64
2024/03/10 12:40:14;;;;;;;3.00;1.50;;;22.00;37.60;;;;;;5091896;28;20312;-64
2024/03/10 12:42:43;;;;;;;1.45;1.20;;;22.00;37.70;;;;;;5091598;28;20190;-64
2024/03/10 12:45:15;;;;;;;2.72;1.40;;;22.00;37.60;;;;;;5090954;28;20242;-64
2024/03/10 12:47:43;;;;;;;2.63;1.70;;;22.00;37.60;;;;;;5093685;28;20194;-63
2024/03/10 12:50:12;;;;;;;1.88;1.30;;;22.00;37.60;;;;;;5095253;28;20321;-64
2024/03/10 12:52:39;;;;;;;2.85;1.40;;;21.90;37.50;;;;;;5095135;28;20186;-64
2024/03/10 12:55:07;;;;;;;3.25;1.40;;;22.00;37.60;;;;;;5095220;28;20790;-63
2024/03/10 12:57:36;;;;;;;2.05;1.30;;;22.00;37.70;;;;;;5094557;28;20588;-64
2024/03/10 13:00:06;;;;;;;3.35;1.45;;;22.00;37.60;;;;;;5094853;28;20228;-64
2024/03/10 13:02:33;;;;;;;2.58;1.55;;;22.00;37.60;;;;;;5095350;28;20190;-64
2024/03/10 13:05:00;;;;;;;1.25;1.15;;;22.00;37.60;;;;;;5094757;28;20707;-63
2024/03/10 13:07:28;;;;;;;1.35;1.23;;;21.90;37.50;;;;;;5094869;28;20727;-64
2024/03/10 13:09:55;;;;;;;2.00;1.25;;;22.00;37.60;;;;;;5095128;28;20229;-64
2024/03/10 13:12:22;;;;;;;1.98;1.30;;;22.00;37.70;;;;;;5094947;28;20193;-64
2024/03/10 13:14:49;;;;;;;2.72;1.30;;;22.00;37.60;;;;;;5094748;28;20224;-64